sensor_id;sensor_type;location;lat;lon;timestamp;temperature;humidity
64561;DHT22;50960;46.838;16.838;2024-03-02T00:00:09;6.40;99.90
64561;DHT22;50960;46.838;16.838;2024-03-02T00:02:47;6.50;99.90
64561;DHT22;50960;46.838;16.838;2024-03-02T00:05:19;6.60;99.90
64561;DHT22;50960;46.838;16.838;2024-03-02T00:07:55;6.60;99.90
64561;DHT22;50960;46.838;16.838;2024-03-02T00:10:33;6.70;99.90
64561;DHT22;50960;46.838;16.838;2024-03-02T00:13:03;6.80;99.90
64561;DHT22;50960;46.838;16.838;2024-03-02T00:18:02;6.50;99.90
64561;DHT22;50960;46.838;16.838;2024-03-02T00:20:29;6.50;99.90
64561;DHT22;50960;46.838;16.838;2024-03-02T00:23:05;6.60;99.90
64561;DHT22;50960;46.838;16.838;2024-03-02T00:25:47;6.50;99.90
64561;DHT22;50960;46.838;16.838;2024-03-02T00:28:24;6.40;99.90
64561;DHT22;50960;46.838;16.838;2024-03-02T00:31:09;6.50;99.90
64561;DHT22;50960;46.838;16.838;2024-03-02T00:33:47;6.60;99.90
64561;DHT22;50960;46.838;16.838;2024-03-02T00:36:22;6.50;99.90
64561;DHT22;50960;46.838;16.838;2024-03-02T00:38:51;6.30;99.90
64561;DHT22;50960;46.838;16.838;2024-03-02T00:41:29;6.20;99.90
64561;DHT22;50960;46.838;16.838;2024-03-02T00:44:02;6.20;99.90
64561;DHT22;50960;46.838;16.838;2024-03-02T00:46:34;6.10;99.90
64561;DHT22;50960;46.838;16.838;2024-03-02T00:49:02;6.10;99.90
64561;DHT22;50960;46.838;16.838;2024-03-02T00:51:32;6.10;99.90
64561;DHT22;50960;46.838;16.838;2024-03-02T00:54:00;6.00;99.90
64561;DHT22;50960;46.838;16.838;2024-03-02T00:56:27;6.10;99.90
64561;DHT22;50960;46.838;16.838;2024-03-02T00:58:53;6.30;99.90
64561;DHT22;50960;46.838;16.838;2024-03-02T01:01:20;6.30;99.90
64561;DHT22;50960;46.838;16.838;2024-03-02T01:03:46;6.50;99.90
64561;DHT22;50960;46.838;16.838;2024-03-02T01:06:12;6.50;99.90
64561;DHT22;50960;46.838;16.838;2024-03-02T01:08:39;6.60;99.90
64561;DHT22;50960;46.838;16.838;2024-03-02T01:11:05;6.60;99.90
64561;DHT22;50960;46.838;16.838;2024-03-02T01:13:32;6.60;99.90
64561;DHT22;50960;46.838;16.838;2024-03-02T01:15:59;6.60;99.90
64561;DHT22;50960;46.838;16.838;2024-03-02T01:18:25;6.60;99.90
64561;DHT22;50960;46.838;16.838;2024-03-02T01:20:52;6.70;99.90
64561;DHT22;50960;46.838;16.838;2024-03-02T01:23:19;6.60;99.90
64561;DHT22;50960;46.838;16.838;2024-03-02T01:25:48;6.50;99.90
64561;DHT22;50960;46.838;16.838;2024-03-02T01:28:14;6.50;99.90
64561;DHT22;50960;46.838;16.838;2024-03-02T01:30:41;6.40;99.90
64561;DHT22;50960;46.838;16.838;2024-03-02T01:33:07;6.30;99.90
64561;DHT22;50960;46.838;16.838;2024-03-02T01:35:34;6.40;99.90
64561;DHT22;50960;46.838;16.838;2024-03-02T01:38:04;6.50;99.90
64561;DHT22;50960;46.838;16.838;2024-03-02T01:40:35;6.60;99.90
64561;DHT22;50960;46.838;16.838;2024-03-02T01:43:01;6.60;99.90
64561;DHT22;50960;46.838;16.838;2024-03-02T01:45:28;6.60;99.90
64561;DHT22;50960;46.838;16.838;2024-03-02T01:47:55;6.50;99.90
64561;DHT22;50960;46.838;16.838;2024-03-02T01:50:29;6.50;99.90
64561;DHT22;50960;46.838;16.838;2024-03-02T01:52:56;6.60;99.90
64561;DHT22;50960;46.838;16.838;2024-03-02T01:55:23;6.50;99.90
64561;DHT22;50960;46.838;16.838;2024-03-02T01:57:50;6.50;99.90
64561;DHT22;50960;46.838;16.838;2024-03-02T02:00:20;6.40;99.90
64561;DHT22;50960;46.838;16.838;2024-03-02T02:02:48;6.50;99.90
64561;DHT22;50960;46.838;16.838;2024-03-02T02:05:14;6.50;99.90
64561;DHT22;50960;46.838;16.838;2024-03-02T02:07:41;6.50;99.90
64561;DHT22;50960;46.838;16.838;2024-03-02T02:10:12;6.60;99.90
64561;DHT22;50960;46.838;16.838;2024-03-02T02:12:38;6.60;99.90
64561;DHT22;50960;46.838;16.838;2024-03-02T02:15:25;6.50;99.90
64561;DHT22;50960;46.838;16.838;2024-03-02T02:17:51;6.50;99.90
64561;DHT22;50960;46.838;16.838;2024-03-02T02:20:17;6.50;99.90
64561;DHT22;50960;46.838;16.838;2024-03-02T02:23:02;6.50;99.90
64561;DHT22;50960;46.838;16.838;2024-03-02T02:25:29;6.60;99.90
64561;DHT22;50960;46.838;16.838;2024-03-02T02:27:56;6.70;99.90
64561;DHT22;50960;46.838;16.838;2024-03-02T02:30:27;6.80;99.90
64561;DHT22;50960;46.838;16.838;2024-03-02T02:32:54;6.70;99.90
64561;DHT22;50960;46.838;16.838;2024-03-02T02:35:20;6.60;99.90
64561;DHT22;50960;46.838;16.838;2024-03-02T02:37:47;6.70;99.90
64561;DHT22;50960;46.838;16.838;2024-03-02T02:40:14;6.80;99.90
64561;DHT22;50960;46.838;16.838;2024-03-02T02:42:40;6.70;99.90
64561;DHT22;50960;46.838;16.838;2024-03-02T02:45:07;6.60;99.90
64561;DHT22;50960;46.838;16.838;2024-03-02T02:47:33;6.60;99.90
64561;DHT22;50960;46.838;16.838;2024-03-02T02:50:06;6.60;99.90
64561;DHT22;50960;46.838;16.838;2024-03-02T02:52:36;6.70;99.90
64561;DHT22;50960;46.838;16.838;2024-03-02T02:55:07;6.80;99.90
64561;DHT22;50960;46.838;16.838;2024-03-02T02:57:34;6.80;99.90
64561;DHT22;50960;46.838;16.838;2024-03-02T03:00:09;6.70;99.90
64561;DHT22;50960;46.838;16.838;2024-03-02T03:02:45;6.70;99.90
64561;DHT22;50960;46.838;16.838;2024-03-02T03:05:13;6.70;99.90
64561;DHT22;50960;46.838;16.838;2024-03-02T03:07:41;6.70;99.90
64561;DHT22;50960;46.838;16.838;2024-03-02T03:10:08;6.70;99.90
64561;DHT22;50960;46.838;16.838;2024-03-02T03:12:34;6.80;99.90
64561;DHT22;50960;46.838;16.838;2024-03-02T03:15:01;6.80;99.90
64561;DHT22;50960;46.838;16.838;2024-03-02T03:17:28;6.80;99.90
64561;DHT22;50960;46.838;16.838;2024-03-02T03:19:55;6.80;99.90
64561;DHT22;50960;46.838;16.838;2024-03-02T03:22:21;6.70;99.90
64561;DHT22;50960;46.838;16.838;2024-03-02T03:24:47;6.80;99.90
64561;DHT22;50960;46.838;16.838;2024-03-02T03:27:13;6.90;99.90
64561;DHT22;50960;46.838;16.838;2024-03-02T03:29:40;7.00;99.90
64561;DHT22;50960;46.838;16.838;2024-03-02T03:32:06;7.00;99.90
64561;DHT22;50960;46.838;16.838;2024-03-02T03:34:33;7.00;99.90
64561;DHT22;50960;46.838;16.838;2024-03-02T03:36:59;7.10;99.90
64561;DHT22;50960;46.838;16.838;2024-03-02T03:39:26;7.10;99.90
64561;DHT22;50960;46.838;16.838;2024-03-02T03:41:52;7.10;99.90
64561;DHT22;50960;46.838;16.838;2024-03-02T03:44:18;7.00;99.90
64561;DHT22;50960;46.838;16.838;2024-03-02T03:46:44;7.00;99.90
64561;DHT22;50960;46.838;16.838;2024-03-02T03:49:10;7.00;99.90
64561;DHT22;50960;46.838;16.838;2024-03-02T03:51:37;7.10;99.90
64561;DHT22;50960;46.838;16.838;2024-03-02T03:54:03;7.10;99.90
64561;DHT22;50960;46.838;16.838;2024-03-02T03:56:29;7.10;99.90
64561;DHT22;50960;46.838;16.838;2024-03-02T03:58:55;7.00;99.90
64561;DHT22;50960;46.838;16.838;2024-03-02T04:01:21;7.10;99.90
64561;DHT22;50960;46.838;16.838;2024-03-02T04:03:48;7.10;99.90
64561;DHT22;50960;46.838;16.838;2024-03-02T04:06:15;7.20;99.90
64561;DHT22;50960;46.838;16.838;2024-03-02T04:08:43;7.20;99.90
64561;DHT22;50960;46.838;16.838;2024-03-02T04:11:09;7.20;99.90
64561;DHT22;50960;46.838;16.838;2024-03-02T04:13:36;7.20;99.90
64561;DHT22;50960;46.838;16.838;2024-03-02T04:16:02;7.20;99.90
64561;DHT22;50960;46.838;16.838;2024-03-02T04:18:29;7.20;99.90
64561;DHT22;50960;46.838;16.838;2024-03-02T04:20:56;7.20;99.90
64561;DHT22;50960;46.838;16.838;2024-03-02T04:23:24;7.20;99.90
64561;DHT22;50960;46.838;16.838;2024-03-02T04:25:50;7.20;99.90
64561;DHT22;50960;46.838;16.838;2024-03-02T04:28:16;7.30;99.90
64561;DHT22;50960;46.838;16.838;2024-03-02T04:30:42;7.30;99.90
64561;DHT22;50960;46.838;16.838;2024-03-02T04:33:09;7.40;99.90
64561;DHT22;50960;46.838;16.838;2024-03-02T04:35:36;7.40;99.90
64561;DHT22;50960;46.838;16.838;2024-03-02T04:38:03;7.40;99.90
64561;DHT22;50960;46.838;16.838;2024-03-02T04:40:29;7.40;99.90
64561;DHT22;50960;46.838;16.838;2024-03-02T04:42:55;7.40;99.90
64561;DHT22;50960;46.838;16.838;2024-03-02T04:45:21;7.50;99.90
64561;DHT22;50960;46.838;16.838;2024-03-02T04:47:48;7.50;99.90
64561;DHT22;50960;46.838;16.838;2024-03-02T04:50:14;7.50;99.90
64561;DHT22;50960;46.838;16.838;2024-03-02T04:52:40;7.60;99.90
64561;DHT22;50960;46.838;16.838;2024-03-02T04:55:06;7.60;99.90
64561;DHT22;50960;46.838;16.838;2024-03-02T04:57:35;7.60;99.90
64561;DHT22;50960;46.838;16.838;2024-03-02T05:00:02;7.70;99.90
64561;DHT22;50960;46.838;16.838;2024-03-02T05:02:32;7.70;99.90
64561;DHT22;50960;46.838;16.838;2024-03-02T05:04:59;7.70;99.90
64561;DHT22;50960;46.838;16.838;2024-03-02T05:07:25;7.80;99.90
64561;DHT22;50960;46.838;16.838;2024-03-02T05:09:51;7.80;99.90
64561;DHT22;50960;46.838;16.838;2024-03-02T05:12:17;7.90;99.90
64561;DHT22;50960;46.838;16.838;2024-03-02T05:15:03;7.90;99.90
64561;DHT22;50960;46.838;16.838;2024-03-02T05:17:29;7.90;99.90
64561;DHT22;50960;46.838;16.838;2024-03-02T05:19:56;7.90;99.90
64561;DHT22;50960;46.838;16.838;2024-03-02T05:22:22;7.80;99.90
64561;DHT22;50960;46.838;16.838;2024-03-02T05:24:48;7.90;99.90
64561;DHT22;50960;46.838;16.838;2024-03-02T05:27:15;7.90;99.90
64561;DHT22;50960;46.838;16.838;2024-03-02T05:29:41;7.80;99.90
64561;DHT22;50960;46.838;16.838;2024-03-02T05:32:08;7.80;99.90
64561;DHT22;50960;46.838;16.838;2024-03-02T05:34:35;7.80;99.90
64561;DHT22;50960;46.838;16.838;2024-03-02T05:37:01;7.90;99.90
64561;DHT22;50960;46.838;16.838;2024-03-02T05:39:27;7.90;99.90
64561;DHT22;50960;46.838;16.838;2024-03-02T05:41:54;7.90;99.90
64561;DHT22;50960;46.838;16.838;2024-03-02T05:44:20;7.90;99.90
64561;DHT22;50960;46.838;16.838;2024-03-02T05:46:46;8.00;99.90
64561;DHT22;50960;46.838;16.838;2024-03-02T05:49:13;7.90;99.90
64561;DHT22;50960;46.838;16.838;2024-03-02T05:51:39;7.90;99.90
64561;DHT22;50960;46.838;16.838;2024-03-02T05:54:05;7.90;99.90
64561;DHT22;50960;46.838;16.838;2024-03-02T05:56:31;8.00;99.90
64561;DHT22;50960;46.838;16.838;2024-03-02T05:58:58;7.90;99.90
64561;DHT22;50960;46.838;16.838;2024-03-02T06:01:44;7.90;99.90
64561;DHT22;50960;46.838;16.838;2024-03-02T06:04:10;7.90;99.90
64561;DHT22;50960;46.838;16.838;2024-03-02T06:06:37;7.80;99.90
64561;DHT22;50960;46.838;16.838;2024-03-02T06:09:04;7.80;99.90
